West Elwood, Indiana
Current Conditions -  °F | °C
As of 9:15 PM on Wednesday 17 Dec 2014 (Local Time) from KMZZ Reporting Station
Overcast Overcast  
Wind Chill: 17°   Ceiling: 2000
Heat Index: 26°   Visibility: 10mi
Dew Point: 22°   Wind: 8mph
Humidity: 86%   Direction: 300°WNW
Pressure: 30.26"   Gusts: NA
Location:  40.3067°N, 85.834°W
Report Text: KMZZ 180215Z AUTO 30007KT 10SM OVC020 M04/M06 A3026 RMK AO2 T10361056
Loading
Personal Weather Stations






























Interactive Weather Map New forecast layout! Learn more

10-Day Weather Forecast

Advertisements
Track Severe Weather on mobile